createdAt,value
2018-02-23T00:00:20.137Z,3.36
2018-02-23T00:01:00.681Z,3.43
2018-02-23T00:01:41.226Z,3.5
2018-02-23T00:02:21.784Z,3.51
2018-02-23T00:03:02.370Z,3.55
2018-02-23T00:03:42.876Z,3.54
2018-02-23T00:04:23.483Z,3.58
2018-02-23T00:05:03.978Z,3.61
2018-02-23T00:05:44.490Z,3.68
2018-02-23T00:06:25.025Z,3.68
2018-02-23T00:07:05.588Z,3.6
2018-02-23T00:07:46.116Z,3.68
2018-02-23T00:08:26.815Z,3.62
2018-02-23T00:09:07.357Z,3.58
2018-02-23T00:09:47.930Z,3.42
2018-02-23T00:10:28.437Z,3.39
2018-02-23T00:11:08.979Z,3.2
2018-02-23T00:11:49.525Z,3.21
2018-02-23T00:12:30.116Z,3.32
2018-02-23T00:13:10.688Z,3.29
2018-02-23T00:13:51.239Z,3.5
2018-02-23T00:14:31.777Z,3.42
2018-02-23T00:15:12.321Z,3.32
2018-02-23T00:15:52.934Z,3.33
2018-02-23T00:16:33.445Z,3.43
2018-02-23T00:17:13.983Z,3.43
2018-02-23T00:17:54.519Z,3.5
2018-02-23T00:18:35.061Z,3.45
2018-02-23T00:19:15.675Z,3.4
2018-02-23T00:19:56.175Z,3.47
2018-02-23T00:20:36.748Z,3.43
2018-02-23T00:21:17.362Z,3.39
2018-02-23T00:21:57.889Z,3.39
2018-02-23T00:22:38.399Z,3.47
2018-02-23T00:23:18.968Z,3.48
2018-02-23T00:23:59.487Z,3.4
2018-02-23T00:24:40.043Z,3.24
2018-02-23T00:25:20.558Z,3.39
2018-02-23T00:26:01.115Z,3.23
2018-02-23T00:26:41.656Z,3.47
2018-02-23T00:27:22.346Z,3.4
2018-02-23T00:28:02.956Z,3.51
2018-02-23T00:28:43.403Z,3.35
2018-02-23T00:29:23.961Z,3.26
2018-02-23T00:30:04.516Z,3.23
2018-02-23T00:30:45.062Z,3.2
2018-02-23T00:31:25.599Z,3.35
2018-02-23T00:32:06.143Z,3.26
2018-02-23T00:32:46.710Z,3.18
2018-02-23T00:33:27.351Z,3.17
2018-02-23T00:34:07.848Z,3.13
2018-02-23T00:34:48.435Z,3.11
2018-02-23T00:35:28.915Z,3.08
2018-02-23T00:36:09.430Z,3.11
2018-02-23T00:36:50.013Z,3.18
2018-02-23T00:37:30.559Z,3.18
2018-02-23T00:38:11.132Z,3.21
2018-02-23T00:38:51.697Z,3.21
2018-02-23T00:39:32.232Z,3.32
2018-02-23T00:40:12.830Z,3.18
2018-02-23T00:40:53.408Z,3.23
2018-02-23T00:41:33.995Z,3.14
2018-02-23T00:42:14.622Z,3.18
2018-02-23T00:42:55.169Z,3.42
2018-02-23T00:43:35.656Z,3.36
2018-02-23T00:44:16.215Z,3.15
2018-02-23T00:44:56.777Z,3.18
2018-02-23T00:45:37.353Z,3.26
2018-02-23T00:46:17.903Z,3.28
2018-02-23T00:46:58.538Z,3.23
2018-02-23T00:47:39.097Z,3.18
2018-02-23T00:48:19.948Z,3.32
2018-02-23T00:49:00.205Z,3.39
2018-02-23T00:49:40.714Z,3.28
2018-02-23T00:50:21.281Z,3.31
2018-02-23T00:51:01.828Z,3.35
2018-02-23T00:51:42.370Z,3.36
2018-02-23T00:52:22.900Z,3.29
2018-02-23T00:53:03.443Z,3.42
2018-02-23T00:53:44.032Z,3.5
2018-02-23T00:54:24.761Z,3.36
2018-02-23T00:55:05.173Z,3.36
2018-02-23T00:55:45.756Z,3.32
2018-02-23T00:56:26.277Z,3.32
2018-02-23T00:57:06.800Z,3.29
2018-02-23T00:57:47.359Z,3.33
2018-02-23T00:58:27.946Z,3.29
2018-02-23T00:59:08.501Z,3.51
2018-02-23T00:59:49.031Z,3.45
2018-02-23T01:00:29.605Z,3.39
2018-02-23T01:01:10.129Z,3.36
2018-02-23T01:01:50.694Z,3.2
2018-02-23T01:02:31.243Z,3.4
2018-02-23T01:03:11.867Z,3.39
2018-02-23T01:03:52.401Z,3.39
2018-02-23T01:04:32.960Z,3.39
2018-02-23T01:05:13.550Z,3.29
2018-02-23T01:05:54.112Z,3.33
2018-02-23T01:06:34.655Z,3.31
2018-02-23T01:07:15.230Z,3.28
2018-02-23T01:07:55.759Z,3.35
2018-02-23T01:08:36.283Z,3.28
2018-02-23T01:09:16.803Z,3.29
2018-02-23T01:09:57.350Z,3.26
2018-02-23T01:10:37.893Z,3.21
2018-02-23T01:11:18.470Z,3.31
2018-02-23T01:11:59.027Z,3.26
2018-02-23T01:12:39.579Z,3.47
2018-02-23T01:13:20.131Z,3.54
2018-02-23T01:14:00.902Z,3.52
2018-02-23T01:14:41.614Z,3.52
2018-02-23T01:15:22.171Z,3.61
2018-02-23T01:16:02.659Z,3.52
2018-02-23T01:16:43.207Z,3.42
2018-02-23T01:17:23.730Z,3.48
2018-02-23T01:18:04.285Z,3.21
2018-02-23T01:18:44.827Z,3.21
2018-02-23T01:19:25.658Z,3.28
2018-02-23T01:20:06.076Z,3.24
2018-02-23T01:20:47.413Z,3.29
2018-02-23T01:21:28.000Z,3.26
2018-02-23T01:22:08.579Z,3.21
2018-02-23T01:22:49.106Z,3.4
2018-02-23T01:23:29.671Z,3.43
2018-02-23T01:24:10.210Z,3.33
2018-02-23T01:24:50.767Z,3.45
2018-02-23T01:25:31.347Z,3.54
2018-02-23T01:26:11.882Z,3.45
2018-02-23T01:26:52.501Z,3.5
2018-02-23T01:27:33.035Z,3.58
2018-02-23T01:28:13.613Z,3.45
2018-02-23T01:28:54.146Z,3.55
2018-02-23T01:29:34.665Z,3.51
2018-02-23T01:30:15.223Z,3.47
2018-02-23T01:30:55.770Z,3.48
2018-02-23T01:31:36.327Z,3.58
2018-02-23T01:32:16.876Z,3.51
2018-02-23T01:32:57.636Z,3.45
2018-02-23T01:33:38.226Z,3.32
2018-02-23T01:34:18.750Z,3.21
2018-02-23T01:34:59.290Z,3.21
2018-02-23T01:35:39.850Z,3.33
2018-02-23T01:36:20.376Z,3.24
2018-02-23T01:37:00.896Z,3.21
2018-02-23T01:37:41.427Z,3.2
2018-02-23T01:38:22.000Z,3.18
2018-02-23T01:39:02.505Z,3.24
2018-02-23T01:39:43.151Z,3.28
2018-02-23T01:40:23.707Z,3.26
2018-02-23T01:41:04.265Z,3.32
2018-02-23T01:41:44.800Z,3.32
2018-02-23T01:42:25.347Z,3.28
2018-02-23T01:43:05.861Z,3.26
2018-02-23T01:43:46.429Z,3.23
2018-02-23T01:44:26.982Z,3.24
2018-02-23T01:45:07.552Z,3.24
2018-02-23T01:45:48.330Z,3.29
2018-02-23T01:46:29.015Z,3.2
2018-02-23T01:47:09.477Z,3.29
2018-02-23T01:47:49.967Z,3.21
2018-02-23T01:48:30.528Z,3.29
2018-02-23T01:49:11.076Z,3.43
2018-02-23T01:49:51.624Z,3.35
2018-02-23T01:50:32.173Z,3.43
2018-02-23T01:51:12.729Z,3.47
2018-02-23T01:51:53.274Z,3.5
2018-02-23T01:52:33.820Z,3.52
2018-02-23T01:53:14.589Z,3.55
2018-02-23T01:53:55.129Z,3.52
2018-02-23T01:54:35.703Z,3.57
2018-02-23T01:55:16.329Z,3.47
2018-02-23T01:55:56.963Z,3.47
2018-02-23T01:56:37.433Z,3.36
2018-02-23T01:57:17.985Z,3.33
2018-02-23T01:57:58.563Z,3.29
2018-02-23T01:58:39.123Z,3.35
2018-02-23T01:59:19.906Z,3.33
2018-02-23T02:00:00.459Z,3.23
2018-02-23T02:00:41.026Z,2.96
2018-02-23T02:01:21.582Z,2.96
2018-02-23T02:02:02.844Z,3.06
2018-02-23T02:02:43.562Z,3.13
2018-02-23T02:03:24.212Z,3.13
2018-02-23T02:04:04.781Z,2.95
2018-02-23T02:04:45.325Z,3.18
2018-02-23T02:05:25.880Z,3.06
2018-02-23T02:06:06.429Z,3.1
2018-02-23T02:06:46.979Z,3.11
2018-02-23T02:07:27.537Z,3.13
2018-02-23T02:08:08.090Z,3.17
2018-02-23T02:08:48.644Z,2.97
2018-02-23T02:09:29.210Z,2.89
2018-02-23T02:10:09.753Z,2.92
2018-02-23T02:10:50.313Z,2.99
2018-02-23T02:11:30.862Z,3
2018-02-23T02:12:11.394Z,2.99
2018-02-23T02:12:51.954Z,2.96
2018-02-23T02:13:32.507Z,2.89
2018-02-23T02:14:13.073Z,3.11
2018-02-23T02:14:53.630Z,3.13
2018-02-23T02:15:34.183Z,3.21
2018-02-23T02:16:14.729Z,3.06
2018-02-23T02:16:55.338Z,3.05
2018-02-23T02:17:35.895Z,3.05
2018-02-23T02:18:16.452Z,3.03
2018-02-23T02:18:57.027Z,3
2018-02-23T02:19:37.579Z,3.03
2018-02-23T02:20:18.136Z,3.08
2018-02-23T02:20:58.697Z,3.05
2018-02-23T02:21:39.283Z,3.15
2018-02-23T02:22:19.843Z,3.1
2018-02-23T02:23:00.501Z,3
2018-02-23T02:23:41.054Z,2.99
2018-02-23T02:24:21.603Z,2.96
2018-02-23T02:25:02.182Z,2.89
2018-02-23T02:25:42.745Z,2.77
2018-02-23T02:26:23.310Z,2.9
2018-02-23T02:27:03.866Z,2.92
2018-02-23T02:27:44.437Z,2.87
2018-02-23T02:28:24.984Z,2.96
2018-02-23T02:29:05.556Z,2.95
2018-02-23T02:29:46.119Z,2.85
2018-02-23T02:30:26.676Z,2.69
2018-02-23T02:31:07.256Z,2.77
2018-02-23T02:31:47.817Z,2.74
2018-02-23T02:32:28.380Z,2.72
2018-02-23T02:33:08.944Z,2.66
2018-02-23T02:33:49.500Z,2.81
2018-02-23T02:34:30.087Z,2.85
2018-02-23T02:35:10.614Z,2.84
2018-02-23T02:35:51.192Z,2.87
2018-02-23T02:36:31.744Z,2.89
2018-02-23T02:37:12.309Z,2.99
2018-02-23T02:37:52.867Z,3.06
2018-02-23T02:38:33.427Z,3.03
2018-02-23T02:39:13.988Z,2.92
2018-02-23T02:39:54.555Z,2.9
2018-02-23T02:40:35.140Z,2.85
2018-02-23T02:41:15.689Z,2.87
2018-02-23T02:41:56.246Z,2.99
2018-02-23T02:42:36.803Z,2.84
2018-02-23T02:43:17.364Z,2.9
2018-02-23T02:43:57.921Z,2.89
2018-02-23T02:44:38.486Z,2.96
2018-02-23T02:45:19.069Z,3.02
2018-02-23T02:45:59.636Z,2.97
2018-02-23T02:46:40.345Z,2.71
2018-02-23T02:47:20.916Z,2.85
2018-02-23T02:48:01.465Z,3
2018-02-23T02:48:42.006Z,2.96
2018-02-23T02:49:22.574Z,2.79
2018-02-23T02:50:03.097Z,2.72
2018-02-23T02:50:43.676Z,2.82
2018-02-23T02:51:24.216Z,2.92
2018-02-23T02:52:04.769Z,2.95
2018-02-23T02:52:45.626Z,2.84
2018-02-23T02:53:26.268Z,2.85
2018-02-23T02:54:06.818Z,2.93
2018-02-23T02:54:47.371Z,2.82
2018-02-23T02:55:27.914Z,2.64
2018-02-23T02:56:08.460Z,2.64
2018-02-23T02:56:49.042Z,2.56
2018-02-23T02:57:29.602Z,2.49
2018-02-23T02:58:10.433Z,2.46
2018-02-23T02:58:50.941Z,2.53
2018-02-23T02:59:31.501Z,2.53
2018-02-23T03:00:12.048Z,2.46
2018-02-23T03:00:52.613Z,2.46
2018-02-23T03:01:33.173Z,2.28
2018-02-23T03:02:13.749Z,2.3
2018-02-23T03:02:54.273Z,2.35
2018-02-23T03:03:34.840Z,2.43
2018-02-23T03:04:15.532Z,2.43
2018-02-23T03:04:56.150Z,2.43
2018-02-23T03:05:36.690Z,2.34
2018-02-23T03:06:17.253Z,2.39
2018-02-23T03:06:57.809Z,2.48
2018-02-23T03:07:38.359Z,2.39
2018-02-23T03:08:19.032Z,2.41
2018-02-23T03:08:59.588Z,2.46
2018-02-23T03:09:40.237Z,2.48
2018-02-23T03:10:20.899Z,2.31
2018-02-23T03:11:01.448Z,2.25
2018-02-23T03:11:41.986Z,2.46
2018-02-23T03:12:22.526Z,2.54
2018-02-23T03:13:03.097Z,2.48
2018-02-23T03:13:43.653Z,2.53
2018-02-23T03:14:24.224Z,2.42
2018-02-23T03:15:04.739Z,2.53
2018-02-23T03:15:45.272Z,2.48
2018-02-23T03:16:26.070Z,2.45
2018-02-23T03:17:06.820Z,2.42
2018-02-23T03:17:47.375Z,2.48
2018-02-23T03:18:27.939Z,2.45
2018-02-23T03:19:08.477Z,2.39
2018-02-23T03:20:57.295Z,2.31
2018-02-23T03:21:37.845Z,2.28
2018-02-23T03:22:18.398Z,2.21
2018-02-23T03:22:58.934Z,2.21
2018-02-23T03:23:39.517Z,2.17
2018-02-23T03:24:20.087Z,2.07
2018-02-23T03:25:00.756Z,2.14
2018-02-23T03:25:41.146Z,2.09
2018-02-23T03:26:21.686Z,2.07
2018-02-23T03:27:02.244Z,2.24
2018-02-23T03:27:42.798Z,2.23
2018-02-23T03:28:23.382Z,2.1
2018-02-23T03:29:03.907Z,2.09
2018-02-23T03:29:44.441Z,2.07
2018-02-23T03:30:24.989Z,2.09
2018-02-23T03:31:06.499Z,2.09
2018-02-23T03:31:47.041Z,1.98
2018-02-23T03:32:27.598Z,2.09
2018-02-23T03:33:08.152Z,2.09
2018-02-23T03:33:48.720Z,2.16
2018-02-23T03:34:29.280Z,2.02
2018-02-23T03:35:09.868Z,1.98
2018-02-23T03:35:50.482Z,1.95
2018-02-23T03:36:31.159Z,1.88
2018-02-23T03:37:11.577Z,1.93
2018-02-23T03:37:52.097Z,1.99
2018-02-23T03:38:32.647Z,2.09
2018-02-23T03:39:13.208Z,2.09
2018-02-23T03:39:53.752Z,2.18
2018-02-23T03:40:34.290Z,2.06
2018-02-23T03:41:14.863Z,2.1
2018-02-23T03:41:55.394Z,2.14
2018-02-23T03:42:35.936Z,1.98
2018-02-23T03:43:16.467Z,1.87
2018-02-23T03:43:57.029Z,1.86
2018-02-23T03:44:37.557Z,1.88
2018-02-23T03:45:18.124Z,1.87
2018-02-23T03:45:58.676Z,2.06
2018-02-23T03:46:39.226Z,2.07
2018-02-23T03:47:19.780Z,2
2018-02-23T03:48:00.370Z,2.06
2018-02-23T03:48:40.920Z,2.14
2018-02-23T03:49:21.747Z,2.06
2018-02-23T03:50:02.297Z,1.98
2018-02-23T03:50:42.851Z,2.03
2018-02-23T03:51:23.410Z,2.06
2018-02-23T03:52:03.964Z,2.03
2018-02-23T03:52:44.489Z,2.14
2018-02-23T03:53:25.052Z,2.09
2018-02-23T03:54:05.578Z,2.12
2018-02-23T03:54:46.236Z,2.09
2018-02-23T03:55:26.911Z,2.09
2018-02-23T03:56:07.465Z,2.1
2018-02-23T03:56:48.026Z,2.07
2018-02-23T03:57:28.580Z,2.2
2018-02-23T03:58:09.125Z,2.21
2018-02-23T03:58:49.671Z,2.27
2018-02-23T03:59:30.229Z,2.38
2018-02-23T04:00:10.770Z,2.42
2018-02-23T04:00:51.314Z,2.27
2018-02-23T04:01:31.876Z,2.27
2018-02-23T04:02:12.432Z,2.36
2018-02-23T04:02:52.988Z,2.45
2018-02-23T04:03:33.540Z,2.54
2018-02-23T04:04:14.343Z,2.45
2018-02-23T04:04:54.799Z,2.36
2018-02-23T04:05:35.358Z,2.35
2018-02-23T04:06:15.921Z,2.25
2018-02-23T04:06:56.473Z,2.45
2018-02-23T04:07:37.043Z,2.3
2018-02-23T04:08:17.596Z,2.36
2018-02-23T04:08:58.162Z,2.42
2018-02-23T04:09:38.686Z,2.41
2018-02-23T04:10:19.236Z,2.52
2018-02-23T04:10:59.793Z,2.53
2018-02-23T04:11:40.350Z,2.52
2018-02-23T04:12:20.880Z,2.46
2018-02-23T04:13:01.496Z,2.67
2018-02-23T04:13:42.038Z,2.46
2018-02-23T04:14:22.598Z,2.46
2018-02-23T04:15:03.167Z,2.52
2018-02-23T04:15:43.701Z,2.45
2018-02-23T04:16:24.242Z,2.28
2018-02-23T04:17:04.790Z,2.07
2018-02-23T04:17:45.322Z,2.12
2018-02-23T04:18:25.880Z,2.09
2018-02-23T04:19:06.426Z,2.06
2018-02-23T04:19:46.965Z,2.03
2018-02-23T04:20:27.523Z,2.14
2018-02-23T04:21:08.065Z,2
2018-02-23T04:21:48.638Z,2.18
2018-02-23T04:22:29.171Z,2.18
2018-02-23T04:23:09.717Z,2.06
2018-02-23T04:23:50.274Z,1.99
2018-02-23T04:24:30.832Z,2.02
2018-02-23T04:25:11.385Z,2.02
2018-02-23T04:25:51.913Z,2.02
2018-02-23T04:26:32.474Z,2.03
2018-02-23T04:27:13.034Z,1.99
2018-02-23T04:27:53.577Z,1.88
2018-02-23T04:28:34.150Z,1.86
2018-02-23T04:29:14.683Z,1.84
2018-02-23T04:29:55.352Z,1.73
2018-02-23T04:30:35.885Z,1.76
2018-02-23T04:31:16.432Z,1.72
2018-02-23T04:31:56.959Z,1.66
2018-02-23T04:32:37.568Z,1.68
2018-02-23T04:33:18.094Z,1.77
2018-02-23T04:33:58.639Z,1.79
2018-02-23T04:34:39.193Z,1.69
2018-02-23T04:35:19.768Z,1.65
2018-02-23T04:36:00.299Z,1.77
2018-02-23T04:36:40.863Z,1.72
2018-02-23T04:37:21.401Z,1.81
2018-02-23T04:38:01.948Z,1.83
2018-02-23T04:38:43.174Z,1.76
2018-02-23T04:39:23.711Z,1.79
2018-02-23T04:40:04.249Z,1.65
2018-02-23T04:40:44.808Z,1.76
2018-02-23T04:41:25.322Z,1.8
2018-02-23T04:42:05.904Z,1.8
2018-02-23T04:42:46.466Z,1.88
2018-02-23T04:43:27.016Z,1.8
2018-02-23T04:44:07.566Z,1.73
2018-02-23T04:44:48.146Z,1.72
2018-02-23T04:45:28.700Z,1.79
2018-02-23T04:46:09.260Z,1.88
2018-02-23T04:46:49.807Z,1.91
2018-02-23T04:47:30.352Z,2.09
2018-02-23T04:48:11.808Z,2.07
2018-02-23T04:48:51.487Z,2
2018-02-23T04:49:32.026Z,1.68
2018-02-23T04:50:12.597Z,1.76
2018-02-23T04:50:53.152Z,1.73
2018-02-23T04:51:33.683Z,1.7
2018-02-23T04:52:14.217Z,1.79
2018-02-23T04:52:54.774Z,1.8
2018-02-23T04:53:35.337Z,1.83
2018-02-23T04:54:15.879Z,1.87
2018-02-23T04:54:56.437Z,1.76
2018-02-23T04:55:36.989Z,1.76
2018-02-23T04:56:17.554Z,1.73
2018-02-23T04:56:58.101Z,1.65
2018-02-23T04:57:38.692Z,1.69
2018-02-23T04:58:19.264Z,1.68
2018-02-23T04:58:59.798Z,1.81
2018-02-23T04:59:40.350Z,1.87
2018-02-23T05:00:20.915Z,1.81
2018-02-23T05:01:01.475Z,1.86
2018-02-23T05:01:42.042Z,1.9
2018-02-23T05:02:22.561Z,2
2018-02-23T05:03:03.116Z,2.02
2018-02-23T05:03:43.669Z,1.95
2018-02-23T05:04:24.246Z,2.12
2018-02-23T05:05:04.789Z,2.07
2018-02-23T05:05:45.345Z,1.95
2018-02-23T05:06:25.903Z,1.88
2018-02-23T05:07:06.441Z,1.88
2018-02-23T05:07:47.021Z,1.73
2018-02-23T05:08:27.592Z,1.65
2018-02-23T05:09:08.122Z,1.68
2018-02-23T05:09:48.704Z,1.69
2018-02-23T05:10:29.244Z,1.8
2018-02-23T05:11:09.800Z,1.66
2018-02-23T05:11:50.331Z,1.62
2018-02-23T05:12:30.884Z,1.54
2018-02-23T05:13:11.436Z,1.59
2018-02-23T05:13:51.983Z,1.6
2018-02-23T05:14:32.524Z,1.52
2018-02-23T05:15:13.286Z,1.69
2018-02-23T05:15:53.824Z,1.59
2018-02-23T05:16:34.395Z,1.6
2018-02-23T05:17:14.960Z,1.55
2018-02-23T05:17:55.527Z,1.58
2018-02-23T05:18:36.103Z,1.69
2018-02-23T05:19:16.637Z,1.68
2018-02-23T05:19:57.204Z,1.7
2018-02-23T05:20:37.743Z,1.81
2018-02-23T05:21:18.318Z,1.79
2018-02-23T05:21:58.877Z,1.83
2018-02-23T05:22:39.421Z,1.79
2018-02-23T05:23:19.967Z,1.79
2018-02-23T05:24:00.525Z,1.77
2018-02-23T05:24:41.141Z,1.77
2018-02-23T05:25:21.698Z,1.73
2018-02-23T05:26:02.228Z,1.51
2018-02-23T05:26:42.788Z,1.51
2018-02-23T05:27:23.315Z,1.41
2018-02-23T05:28:03.863Z,1.44
2018-02-23T05:28:44.418Z,1.26
2018-02-23T05:29:25.002Z,1.29
2018-02-23T05:30:05.550Z,1.37
2018-02-23T05:30:46.100Z,1.42
2018-02-23T05:31:26.667Z,1.4
2018-02-23T05:32:07.237Z,1.58
2018-02-23T05:32:47.781Z,1.52
2018-02-23T05:33:28.332Z,1.44
2018-02-23T05:34:08.900Z,1.33
2018-02-23T05:34:49.441Z,1.51
2018-02-23T05:35:30.002Z,1.58
2018-02-23T05:36:10.543Z,1.45
2018-02-23T05:36:51.084Z,1.52
2018-02-23T05:37:31.641Z,1.62
2018-02-23T05:38:12.200Z,1.62
2018-02-23T05:38:52.762Z,1.62
2018-02-23T05:39:33.319Z,1.6
2018-02-23T05:40:13.885Z,1.51
2018-02-23T05:40:54.461Z,1.5
2018-02-23T05:41:35.021Z,1.44
2018-02-23T05:42:15.568Z,1.45
2018-02-23T05:42:56.110Z,1.45
2018-02-23T05:43:36.702Z,1.59
2018-02-23T05:44:17.251Z,1.59
2018-02-23T05:44:57.819Z,1.6
2018-02-23T05:45:38.370Z,1.68
2018-02-23T05:46:18.936Z,1.73
2018-02-23T05:46:59.493Z,1.7
2018-02-23T05:47:40.055Z,1.8
2018-02-23T05:48:20.597Z,1.8
2018-02-23T05:49:01.176Z,1.88
2018-02-23T05:49:41.744Z,1.88
2018-02-23T05:50:22.303Z,1.73
2018-02-23T05:51:02.844Z,1.72
2018-02-23T05:51:43.397Z,1.7
2018-02-23T05:52:23.958Z,1.72
2018-02-23T05:53:05.333Z,1.76
2018-02-23T05:53:45.086Z,1.47
2018-02-23T05:54:25.665Z,1.4
2018-02-23T05:55:06.235Z,1.34
2018-02-23T05:55:46.792Z,1.34
2018-02-23T05:56:27.356Z,1.44
2018-02-23T05:57:07.970Z,1.5
2018-02-23T05:57:48.502Z,1.51
2018-02-23T05:58:29.056Z,1.59
2018-02-23T05:59:09.607Z,1.52
2018-02-23T05:59:50.159Z,1.6
2018-02-23T06:00:30.731Z,1.45
2018-02-23T06:01:11.286Z,1.65
2018-02-23T06:01:51.843Z,1.6
2018-02-23T06:02:32.402Z,1.58
2018-02-23T06:03:12.959Z,1.48
2018-02-23T06:03:53.504Z,1.47
2018-02-23T06:04:34.076Z,1.48
2018-02-23T06:05:14.632Z,1.48
2018-02-23T06:05:55.195Z,1.52
2018-02-23T06:06:35.765Z,1.59
2018-02-23T06:07:16.326Z,1.55
2018-02-23T06:07:56.934Z,1.58
2018-02-23T06:08:37.482Z,1.42
2018-02-23T06:09:18.054Z,1.41
2018-02-23T06:09:58.661Z,1.58
2018-02-23T06:10:39.155Z,1.36
2018-02-23T06:11:19.715Z,1.42
2018-02-23T06:12:00.274Z,1.5
2018-02-23T06:12:40.858Z,1.41
2018-02-23T06:13:21.426Z,1.52
2018-02-23T06:14:01.993Z,1.59
2018-02-23T06:14:42.552Z,1.66
2018-02-23T06:15:23.113Z,1.52
2018-02-23T06:16:03.678Z,1.36
2018-02-23T06:16:44.219Z,1.47
2018-02-23T06:17:24.779Z,1.54
2018-02-23T06:18:05.337Z,1.48
2018-02-23T06:18:45.893Z,1.47
2018-02-23T06:19:26.449Z,1.51
2018-02-23T06:20:07.015Z,1.44
2018-02-23T06:20:47.590Z,1.41
2018-02-23T06:21:28.144Z,1.33
2018-02-23T06:22:08.701Z,1.18
2018-02-23T06:22:49.262Z,1.33
2018-02-23T06:23:29.839Z,1.48
2018-02-23T06:24:10.413Z,1.45
2018-02-23T06:24:50.954Z,1.22
2018-02-23T06:25:31.525Z,1.4
2018-02-23T06:26:12.105Z,1.18
2018-02-23T06:26:52.669Z,1.32
2018-02-23T06:27:33.229Z,1.29
2018-02-23T06:28:13.802Z,1.36
2018-02-23T06:28:54.387Z,1.44
2018-02-23T06:29:34.984Z,1.41
2018-02-23T06:30:15.551Z,1.23
2018-02-23T06:30:56.107Z,1.27
2018-02-23T06:31:36.665Z,1.23
2018-02-23T06:32:17.227Z,1.22
2018-02-23T06:32:57.786Z,1.26
2018-02-23T06:33:38.352Z,1.36
2018-02-23T06:34:18.886Z,1.2
2018-02-23T06:34:59.468Z,1.23
2018-02-23T06:35:40.031Z,1.27
2018-02-23T06:36:20.580Z,1.33
2018-02-23T06:37:01.138Z,1.26
2018-02-23T06:37:41.698Z,1.12
2018-02-23T06:38:22.254Z,1.11
2018-02-23T06:39:02.813Z,1.14
2018-02-23T06:39:43.354Z,1.16
2018-02-23T06:40:23.931Z,1.32
2018-02-23T06:41:04.487Z,1.16
2018-02-23T06:41:45.050Z,1.24
2018-02-23T06:42:25.600Z,1.24
2018-02-23T06:43:06.207Z,1.23
2018-02-23T06:43:46.755Z,1.22
2018-02-23T06:44:27.299Z,1.26
2018-02-23T06:45:07.868Z,1.32
2018-02-23T06:45:48.431Z,1.44
2018-02-23T06:46:28.986Z,1.45
2018-02-23T06:47:09.544Z,1.59
2018-02-23T06:47:50.107Z,1.6
2018-02-23T06:48:30.657Z,1.58
2018-02-23T06:49:11.257Z,1.65
2018-02-23T06:49:51.806Z,1.4
2018-02-23T06:50:32.361Z,1.47
2018-02-23T06:51:12.975Z,1.41
2018-02-23T06:51:53.525Z,1.54
2018-02-23T06:52:34.084Z,1.52
2018-02-23T06:53:14.636Z,1.59
2018-02-23T06:53:55.208Z,1.55
2018-02-23T06:54:35.773Z,1.58
2018-02-23T06:55:16.336Z,1.52
2018-02-23T06:55:56.914Z,1.68
2018-02-23T06:56:37.448Z,1.68
2018-02-23T06:57:18.018Z,1.7
2018-02-23T06:57:58.570Z,1.68
2018-02-23T06:58:39.184Z,1.79
2018-02-23T06:59:19.751Z,1.76
2018-02-23T07:00:00.303Z,1.76
2018-02-23T07:00:40.851Z,1.62
2018-02-23T07:01:21.436Z,1.8
2018-02-23T07:02:01.994Z,1.76
2018-02-23T07:02:42.571Z,1.68
2018-02-23T07:03:23.115Z,1.7
2018-02-23T07:04:03.679Z,1.55
2018-02-23T07:04:44.281Z,1.52
2018-02-23T07:05:24.823Z,1.6
2018-02-23T07:06:05.382Z,1.59
2018-02-23T07:06:45.928Z,1.77
2018-02-23T07:07:26.491Z,1.79
2018-02-23T07:08:07.052Z,1.59
2018-02-23T07:08:47.629Z,1.65
2018-02-23T07:09:28.187Z,1.59
2018-02-23T07:10:08.867Z,1.66
2018-02-23T07:10:49.423Z,1.66
2018-02-23T07:11:29.959Z,1.69
2018-02-23T07:12:10.510Z,1.77
2018-02-23T07:12:51.077Z,1.81
2018-02-23T07:13:31.671Z,1.91
2018-02-23T07:14:12.225Z,1.9
2018-02-23T07:14:52.784Z,2.12
2018-02-23T07:15:33.376Z,2.1
2018-02-23T07:16:13.950Z,2.06
2018-02-23T07:16:54.503Z,2.02
2018-02-23T07:17:35.075Z,2.66
2018-02-23T07:18:15.633Z,3.03
2018-02-23T07:18:56.197Z,2.84
2018-02-23T07:19:36.750Z,3.5
2018-02-23T07:20:17.332Z,3.55
2018-02-23T07:20:57.899Z,3.62
2018-02-23T07:21:38.466Z,4.08
2018-02-23T07:22:19.062Z,4.08
2018-02-23T07:22:59.586Z,3.78
2018-02-23T07:23:40.142Z,3.1
2018-02-23T07:24:20.723Z,2.84
2018-02-23T07:25:01.260Z,2.52
2018-02-23T07:25:43.348Z,2.54
2018-02-23T07:26:23.878Z,2.45
2018-02-23T07:27:04.649Z,2.31
2018-02-23T07:27:45.242Z,2.3
2018-02-23T07:28:25.790Z,2.21
2018-02-23T07:29:06.374Z,2.31
2018-02-23T07:29:46.947Z,2.23
2018-02-23T07:30:27.580Z,2.2
2018-02-23T07:31:08.132Z,2.24
2018-02-23T07:31:48.761Z,2.64
2018-02-23T07:32:29.254Z,3.06
2018-02-23T07:33:09.820Z,3.23
2018-02-23T07:33:50.376Z,2.75
2018-02-23T07:34:30.951Z,3.05
2018-02-23T07:35:11.508Z,2.99
2018-02-23T07:35:52.078Z,2.74
2018-02-23T07:36:32.645Z,2.49
2018-02-23T07:37:13.186Z,2.3
2018-02-23T07:37:53.737Z,2.07
2018-02-23T07:38:34.292Z,2.28
2018-02-23T07:39:14.838Z,2.24
2018-02-23T07:39:55.440Z,2.18
2018-02-23T07:40:36.005Z,2.17
2018-02-23T07:41:16.628Z,2.23
2018-02-23T07:41:57.195Z,2.2
2018-02-23T07:42:37.746Z,2.2
2018-02-23T07:43:18.291Z,2.06
2018-02-23T07:43:58.848Z,1.98
2018-02-23T07:44:39.412Z,1.73
2018-02-23T07:45:20.026Z,2.03
2018-02-23T07:46:00.565Z,2.09
2018-02-23T07:46:41.154Z,2.03
2018-02-23T07:47:21.748Z,1.87
2018-02-23T07:48:02.320Z,2.07
2018-02-23T07:48:42.836Z,2.07
2018-02-23T07:49:23.395Z,1.87
2018-02-23T07:50:03.950Z,1.98
2018-02-23T07:50:44.515Z,1.83
2018-02-23T07:51:25.237Z,1.8
2018-02-23T07:52:05.980Z,1.87
2018-02-23T07:52:46.789Z,2.05
2018-02-23T07:53:27.342Z,2.17
2018-02-23T07:54:07.917Z,2.12
2018-02-23T07:54:48.496Z,1.84
2018-02-23T07:55:29.057Z,1.87
2018-02-23T07:56:09.620Z,1.7
2018-02-23T07:56:50.204Z,1.84
2018-02-23T07:57:30.791Z,1.73
2018-02-23T07:58:11.366Z,1.81
2018-02-23T07:58:51.936Z,1.8
2018-02-23T07:59:32.511Z,1.8
2018-02-23T08:00:13.024Z,1.87
2018-02-23T08:00:53.577Z,2.02
2018-02-23T08:01:34.132Z,2.67
2018-02-23T08:02:14.680Z,2.74
2018-02-23T08:02:55.223Z,2.59
2018-02-23T08:03:35.782Z,2.89
2018-02-23T08:04:16.383Z,3.08
2018-02-23T08:04:56.948Z,3.26
2018-02-23T08:05:37.545Z,3.36
2018-02-23T08:06:18.088Z,3.06
2018-02-23T08:06:58.619Z,2.66
2018-02-23T08:07:39.180Z,2.57
2018-02-23T08:08:19.751Z,2.42
2018-02-23T08:09:00.366Z,2.24
2018-02-23T08:09:40.927Z,2.16
2018-02-23T08:10:21.487Z,2.21
2018-02-23T08:11:02.014Z,2.03
2018-02-23T08:11:42.577Z,2.12
2018-02-23T08:12:23.144Z,2.3
2018-02-23T08:13:03.699Z,3.36
2018-02-23T08:13:44.250Z,3.36
2018-02-23T08:14:24.864Z,3.61
2018-02-23T08:15:06.463Z,3.28
2018-02-23T08:15:46.999Z,2.95
2018-02-23T08:16:27.890Z,2.81
2018-02-23T08:17:08.654Z,3.02
2018-02-23T08:17:49.183Z,2.75
2018-02-23T08:18:29.732Z,3.08
2018-02-23T08:19:10.289Z,3.4
2018-02-23T08:19:50.850Z,3.06
2018-02-23T08:20:31.408Z,2.78
2018-02-23T08:21:11.964Z,2.78
2018-02-23T08:21:52.523Z,2.59
2018-02-23T08:22:33.070Z,2.43
2018-02-23T08:23:13.612Z,2.46
2018-02-23T08:23:54.183Z,2.25
2018-02-23T08:24:34.746Z,2.38
2018-02-23T08:25:15.295Z,2.72
2018-02-23T08:25:55.860Z,2.84
2018-02-23T08:26:36.431Z,2.72
2018-02-23T08:27:17.041Z,2.67
2018-02-23T08:27:57.595Z,2.78
2018-02-23T08:28:38.568Z,2.87
2018-02-23T08:29:19.291Z,2.9
2018-02-23T08:30:00.145Z,3.5
2018-02-23T08:30:40.657Z,3.06
2018-02-23T08:31:21.201Z,2.82
2018-02-23T08:32:02.936Z,2.84
2018-02-23T08:32:42.703Z,2.67
2018-02-23T08:33:23.285Z,2.71
2018-02-23T08:34:03.872Z,2.85
2018-02-23T08:34:44.402Z,2.66
2018-02-23T08:35:25.043Z,2.57
2018-02-23T08:36:05.562Z,2.57
2018-02-23T08:36:46.302Z,2.48
2018-02-23T08:37:26.817Z,2.59
2018-02-23T08:38:07.583Z,2.59
2018-02-23T08:38:47.989Z,2.43
2018-02-23T08:39:28.529Z,2.49
2018-02-23T08:40:09.065Z,2.52
2018-02-23T08:40:49.618Z,2.61
2018-02-23T08:41:30.258Z,2.66
2018-02-23T08:42:10.938Z,2.48
2018-02-23T08:42:51.576Z,2.54
2018-02-23T08:43:32.108Z,2.59
2018-02-23T08:44:12.642Z,2.69
2018-02-23T08:44:53.197Z,2.69
2018-02-23T08:45:33.689Z,2.57
2018-02-23T08:46:14.255Z,2.53
2018-02-23T08:46:54.917Z,2.49
2018-02-23T08:47:35.454Z,2.67
2018-02-23T08:48:16.026Z,2.52
2018-02-23T08:48:56.583Z,2.45
2018-02-23T08:49:37.095Z,2.46
2018-02-23T08:50:17.707Z,2.54
2018-02-23T08:50:58.216Z,2.54
2018-02-23T08:51:38.753Z,2.6
2018-02-23T08:52:19.264Z,2.46
2018-02-23T08:52:59.793Z,2.63
2018-02-23T08:53:40.355Z,2.59
2018-02-23T08:54:20.885Z,2.48
2018-02-23T08:55:01.642Z,2.42
2018-02-23T08:55:42.196Z,2.42
2018-02-23T08:56:22.964Z,2.28
2018-02-23T08:57:03.497Z,2.35
2018-02-23T08:57:44.010Z,2.45
2018-02-23T08:58:24.568Z,2.45
2018-02-23T08:59:05.105Z,2.36
2018-02-23T08:59:45.683Z,2.14
2018-02-23T09:00:26.199Z,2.09
2018-02-23T09:01:06.705Z,2.07
2018-02-23T09:01:47.346Z,2.09
2018-02-23T09:02:27.845Z,2.3
2018-02-23T09:03:08.418Z,2.38